Rachal, Texas
Current Conditions -  °F | °C
As of 8:35 AM on Monday 20 Oct 2014 (Local Time) from KBKS Reporting Station
Overcast Overcast  
Wind Chill: 71°   Ceiling: 5000
Heat Index: 71°   Visibility: 7mi
Dew Point: 69°   Wind: 6mph
Humidity: 93%   Direction: 10°N
Pressure: 29.97"   Gusts: NA
Location:  26.9826°N, 98.212°W
Report Text: KBKS 201335Z AUTO 01005KT 7SM OVC050 22/20 A2997 RMK AO1 T02160204
Loading
Personal Weather Stations






























Interactive Weather Map New forecast layout! Learn more

10-Day Weather Forecast

Advertisements
Track Severe Weather on mobile